Time;durP1;ratioP1;P1;durP2;ratioP2;P2;SDS_P1;SDS_P2;PMS_P1;PMS_P2;Temp;Humidity;BMP_temperature;BMP_pressure;BME280_temperature;BME280_humidity;BME280_pressure;Samples;Min_cycle;Max_cycle;Signal;HPM_P1;HPM_P2
2021/06/25 00:00:55;;;;;;;24.98;17.70;;;10.50;99.90;;;;;;5012826;28;20486;-78
2021/06/25 00:03:21;;;;;;;26.38;16.50;;;10.40;99.90;;;;;;5012510;28;20041;-78
2021/06/25 00:05:46;;;;;;;27.70;18.27;;;10.40;99.90;;;;;;5012247;28;20076;-78
2021/06/25 00:08:12;;;;;;;26.33;18.40;;;10.30;99.90;;;;;;5007771;28;20406;-78
2021/06/25 00:10:38;;;;;;;26.10;18.67;;;10.30;99.90;;;;;;5012127;28;20497;-78
2021/06/25 00:13:03;;;;;;;26.13;17.60;;;10.30;99.90;;;;;;5013547;28;20029;-78
2021/06/25 00:15:29;;;;;;;30.27;18.52;;;10.20;99.90;;;;;;5013815;28;20478;-78
2021/06/25 00:17:58;;;;;;;29.60;19.05;;;10.00;99.90;;;;;;4999101;28;20045;-78
2021/06/25 00:20:24;;;;;;;26.83;17.20;;;10.10;99.90;;;;;;4991935;28;20030;-78
2021/06/25 00:22:50;;;;;;;33.38;19.65;;;10.10;99.90;;;;;;4993811;28;20030;-78
2021/06/25 00:25:15;;;;;;;27.85;17.48;;;10.10;99.90;;;;;;4994102;28;20372;-78
2021/06/25 00:27:41;;;;;;;26.45;18.33;;;10.00;99.90;;;;;;5009164;28;20113;-78
2021/06/25 00:30:07;;;;;;;31.27;19.20;;;10.00;99.90;;;;;;5008756;28;20045;-78
2021/06/25 00:32:33;;;;;;;25.98;17.92;;;9.90;99.90;;;;;;5008711;28;20483;-78
2021/06/25 00:34:59;;;;;;;27.13;16.17;;;9.80;99.90;;;;;;4993904;28;20028;-78
2021/06/25 00:37:24;;;;;;;25.05;16.85;;;9.80;99.90;;;;;;4994081;28;20027;-78
2021/06/25 00:39:52;;;;;;;22.95;16.80;;;9.80;99.90;;;;;;4993792;28;20034;-78
2021/06/25 00:42:18;;;;;;;30.05;18.00;;;9.70;99.90;;;;;;4992137;28;20034;-78
2021/06/25 00:44:44;;;;;;;25.35;18.60;;;9.70;99.90;;;;;;4993634;28;20368;-78
2021/06/25 00:47:10;;;;;;;30.45;19.48;;;9.70;99.90;;;;;;4993615;28;20368;-75
2021/06/25 00:49:38;;;;;;;29.27;19.98;;;9.70;99.90;;;;;;4993388;28;20482;-76
2021/06/25 00:52:05;;;;;;;30.02;18.67;;;9.60;99.90;;;;;;4991974;28;20514;-75
2021/06/25 00:54:31;;;;;;;25.75;18.33;;;9.60;99.90;;;;;;4993421;28;20080;-75
2021/06/25 00:56:56;;;;;;;25.45;17.73;;;9.60;99.90;;;;;;4993503;28;20526;-75
2021/06/25 00:59:22;;;;;;;26.42;16.73;;;9.50;99.90;;;;;;5003064;28;20057;-78
2021/06/25 01:01:47;;;;;;;30.88;18.77;;;9.40;99.90;;;;;;4993020;28;20069;-77
2021/06/25 01:04:14;;;;;;;21.40;15.60;;;9.40;99.90;;;;;;4993246;28;20101;-77
2021/06/25 01:06:40;;;;;;;28.20;16.45;;;9.40;99.90;;;;;;5008266;28;20085;-77
2021/06/25 01:09:08;;;;;;;27.23;16.73;;;9.30;99.90;;;;;;4992274;28;20026;-77
2021/06/25 01:11:34;;;;;;;25.25;17.20;;;9.20;99.90;;;;;;4992968;28;20461;-77
2021/06/25 01:14:00;;;;;;;28.73;19.15;;;9.20;99.90;;;;;;4991465;28;20022;-77
2021/06/25 01:16:27;;;;;;;26.63;17.88;;;9.40;99.90;;;;;;4993048;28;20041;-78
2021/06/25 01:18:53;;;;;;;24.17;17.00;;;9.20;99.90;;;;;;4997685;28;20041;-78
2021/06/25 01:21:18;;;;;;;23.70;16.65;;;9.10;99.90;;;;;;5012419;28;20029;-77
2021/06/25 01:23:44;;;;;;;26.02;17.98;;;9.10;99.90;;;;;;5012418;28;20022;-78
2021/06/25 01:26:10;;;;;;;25.75;18.05;;;8.90;99.90;;;;;;5011267;28;20045;-78
2021/06/25 01:28:36;;;;;;;31.45;18.55;;;9.00;99.90;;;;;;5012254;28;20520;-78
2021/06/25 01:31:03;;;;;;;26.83;17.65;;;9.10;99.90;;;;;;4992458;28;20034;-78
2021/06/25 01:33:29;;;;;;;26.75;18.60;;;9.10;99.90;;;;;;4992489;28;20031;-77
2021/06/25 01:35:56;;;;;;;28.25;17.25;;;9.10;99.90;;;;;;4991558;28;20150;-78
2021/06/25 01:38:22;;;;;;;25.45;17.45;;;9.00;99.90;;;;;;4992788;28;20490;-78
2021/06/25 01:40:48;;;;;;;29.52;19.15;;;9.00;99.90;;;;;;5007514;28;20046;-78
2021/06/25 01:43:14;;;;;;;30.08;20.25;;;8.90;99.90;;;;;;5012003;28;20022;-78
2021/06/25 01:45:41;;;;;;;26.63;18.42;;;9.00;99.90;;;;;;5012269;28;20042;-77
2021/06/25 01:48:08;;;;;;;33.42;21.25;;;9.00;99.90;;;;;;5012277;28;20026;-77
2021/06/25 01:50:38;;;;;;;35.97;20.25;;;8.90;99.90;;;;;;5001708;28;20057;-78
2021/06/25 01:53:06;;;;;;;30.77;19.48;;;8.80;99.90;;;;;;5021831;28;20406;-78
2021/06/25 01:55:39;;;;;;;34.35;21.52;;;8.60;99.90;;;;;;4992573;28;20038;-77
2021/06/25 01:58:12;;;;;;;26.50;18.38;;;8.80;99.90;;;;;;4992461;28;20157;-77
2021/06/25 02:00:40;;;;;;;32.50;18.45;;;8.70;99.90;;;;;;5029081;28;20030;-77
2021/06/25 02:03:06;;;;;;;24.92;16.95;;;8.80;99.90;;;;;;5011765;28;20026;-77
2021/06/25 02:05:31;;;;;;;33.88;19.88;;;8.80;99.90;;;;;;5012075;28;20026;-77
2021/06/25 02:07:57;;;;;;;28.58;19.67;;;8.70;99.90;;;;;;5012009;28;20037;-77
2021/06/25 02:10:23;;;;;;;30.80;19.48;;;8.70;99.90;;;;;;5008721;28;20030;-77
2021/06/25 02:12:48;;;;;;;29.02;18.88;;;8.70;99.90;;;;;;4990765;28;20023;-78
2021/06/25 02:15:14;;;;;;;22.90;15.90;;;8.80;99.90;;;;;;5007511;28;20054;-78
2021/06/25 02:17:40;;;;;;;24.63;17.88;;;8.70;99.90;;;;;;4992301;28;20024;-77
2021/06/25 02:20:07;;;;;;;25.50;16.13;;;8.80;99.90;;;;;;4991103;28;20026;-78
2021/06/25 02:22:33;;;;;;;26.08;16.95;;;8.60;99.90;;;;;;5009528;28;20037;-77
2021/06/25 02:24:59;;;;;;;26.15;16.73;;;8.50;99.90;;;;;;5011947;28;20053;-77
2021/06/25 02:27:24;;;;;;;31.23;16.60;;;8.60;99.90;;;;;;5011790;28;20057;-77
2021/06/25 02:29:50;;;;;;;27.45;18.42;;;8.50;99.90;;;;;;5012193;28;20041;-78
2021/06/25 02:32:16;;;;;;;25.30;17.50;;;8.60;99.90;;;;;;5009775;28;20033;-77
2021/06/25 02:34:41;;;;;;;29.38;17.27;;;8.50;99.90;;;;;;5010637;28;20026;-77
2021/06/25 02:37:07;;;;;;;22.30;15.48;;;8.40;99.90;;;;;;5010579;28;20054;-77
2021/06/25 02:39:33;;;;;;;23.30;17.17;;;8.40;99.90;;;;;;5010430;28;20030;-77
2021/06/25 02:41:58;;;;;;;24.60;16.73;;;8.50;99.90;;;;;;5006480;28;20032;-78
2021/06/25 02:44:24;;;;;;;26.27;16.38;;;8.50;99.90;;;;;;4995336;28;20058;-78
2021/06/25 02:46:50;;;;;;;20.73;13.38;;;8.50;99.90;;;;;;4995808;28;20027;-77
2021/06/25 02:49:16;;;;;;;22.17;12.60;;;8.50;99.90;;;;;;5010986;28;20026;-77
2021/06/25 02:51:44;;;;;;;22.73;15.63;;;8.50;99.90;;;;;;4996470;28;20026;-77
2021/06/25 02:54:10;;;;;;;24.23;16.95;;;8.40;99.90;;;;;;5008228;28;20077;-77
2021/06/25 02:56:36;;;;;;;28.80;18.52;;;8.40;99.90;;;;;;5006079;28;20554;-77
2021/06/25 02:59:02;;;;;;;23.98;16.00;;;8.50;99.90;;;;;;5013988;28;20161;-78
2021/06/25 03:01:27;;;;;;;23.40;16.10;;;8.50;99.90;;;;;;5014878;28;20036;-77
2021/06/25 03:03:53;;;;;;;23.10;15.70;;;8.50;99.90;;;;;;4997635;28;20399;-77
2021/06/25 03:06:18;;;;;;;25.50;14.82;;;8.50;99.90;;;;;;4994251;28;20022;-78
2021/06/25 03:08:44;;;;;;;22.23;15.45;;;8.50;99.90;;;;;;4995613;28;20697;-77
2021/06/25 03:11:09;;;;;;;31.20;19.35;;;8.40;99.90;;;;;;4995224;28;20030;-77
2021/06/25 03:13:35;;;;;;;27.17;18.15;;;8.50;99.90;;;;;;5006959;28;20080;-77
2021/06/25 03:16:01;;;;;;;28.27;18.65;;;8.60;99.90;;;;;;5014876;28;20034;-77
2021/06/25 03:18:26;;;;;;;41.80;20.48;;;8.50;99.90;;;;;;5014932;28;20057;-77
2021/06/25 03:20:52;;;;;;;39.03;22.10;;;8.50;99.90;;;;;;5014882;28;20034;-77
2021/06/25 03:23:18;;;;;;;44.00;23.98;;;8.60;99.90;;;;;;5013738;28;20014;-77
2021/06/25 03:25:44;;;;;;;35.97;23.10;;;8.60;99.90;;;;;;5014720;28;20055;-78
2021/06/25 03:28:10;;;;;;;30.52;19.08;;;8.70;99.90;;;;;;5014668;28;20032;-78
2021/06/25 03:30:36;;;;;;;26.42;17.33;;;8.70;99.90;;;;;;5014708;28;20030;-77
2021/06/25 03:33:02;;;;;;;26.35;17.70;;;8.60;99.90;;;;;;5012339;28;20578;-77
2021/06/25 03:35:29;;;;;;;29.98;18.10;;;8.60;99.90;;;;;;4995069;28;20030;-77
2021/06/25 03:37:54;;;;;;;30.05;18.42;;;8.50;99.90;;;;;;4994989;28;20034;-77
2021/06/25 03:40:20;;;;;;;26.83;17.95;;;8.50;99.90;;;;;;5009875;28;20030;-77
2021/06/25 03:42:46;;;;;;;30.85;17.25;;;8.50;99.90;;;;;;4994573;28;20022;-78
2021/06/25 03:45:13;;;;;;;31.58;18.35;;;8.60;99.90;;;;;;5011678;28;20494;-78
2021/06/25 03:47:40;;;;;;;26.40;18.38;;;8.50;99.90;;;;;;5013139;28;20053;-78
2021/06/25 03:50:08;;;;;;;33.80;20.38;;;8.60;99.90;;;;;;5013610;28;20133;-77
2021/06/25 03:52:34;;;;;;;31.27;18.05;;;8.50;99.90;;;;;;5014250;28;20030;-77
2021/06/25 03:54:59;;;;;;;24.50;16.63;;;8.50;99.90;;;;;;5009328;28;20041;-77
2021/06/25 03:57:25;;;;;;;24.40;15.80;;;8.50;99.90;;;;;;5001299;28;20496;-77
2021/06/25 03:59:50;;;;;;;25.23;17.35;;;8.60;99.90;;;;;;5013994;28;20029;-77
2021/06/25 04:02:16;;;;;;;24.25;17.13;;;8.60;99.90;;;;;;5013855;28;20495;-77
2021/06/25 04:04:42;;;;;;;35.03;19.10;;;8.70;99.90;;;;;;5009229;28;20026;-78
2021/06/25 04:07:08;;;;;;;32.17;18.02;;;8.70;99.90;;;;;;4994440;28;20062;-77
2021/06/25 04:09:34;;;;;;;31.98;20.35;;;8.80;99.90;;;;;;5009015;28;20524;-77
2021/06/25 04:12:00;;;;;;;34.35;21.77;;;8.80;99.90;;;;;;4994081;28;20022;-78
2021/06/25 04:14:26;;;;;;;54.80;28.75;;;8.90;99.90;;;;;;4995799;28;20106;-77
2021/06/25 04:16:51;;;;;;;65.78;32.38;;;9.10;99.90;;;;;;5012577;28;20481;-77
2021/06/25 04:19:17;;;;;;;56.05;30.27;;;9.40;99.90;;;;;;5012455;28;20152;-77
2021/06/25 04:21:45;;;;;;;70.35;37.30;;;9.40;99.90;;;;;;5012258;28;20033;-77
2021/06/25 04:24:11;;;;;;;69.13;34.42;;;9.70;99.90;;;;;;5013551;28;20030;-78
2021/06/25 04:26:38;;;;;;;56.75;32.08;;;9.90;99.90;;;;;;4996623;28;20080;-77
2021/06/25 04:29:09;;;;;;;55.53;32.03;;;9.80;99.90;;;;;;5005051;28;20021;-77
2021/06/25 04:31:34;;;;;;;63.92;32.55;;;10.00;99.90;;;;;;5012090;28;20030;-77
2021/06/25 04:34:01;;;;;;;63.83;35.28;;;10.20;99.90;;;;;;5012113;28;20030;-77
2021/06/25 04:36:27;;;;;;;57.95;30.90;;;10.40;99.90;;;;;;5011779;28;20448;-78
2021/06/25 04:38:52;;;;;;;59.00;31.00;;;10.50;99.90;;;;;;5013335;28;20105;-78
2021/06/25 04:41:18;;;;;;;61.90;31.45;;;10.60;99.90;;;;;;5013048;28;20116;-78
2021/06/25 04:43:44;;;;;;;51.88;29.83;;;10.80;99.90;;;;;;5012023;28;20022;-78
2021/06/25 04:46:10;;;;;;;52.58;30.25;;;10.90;99.90;;;;;;5005672;28;20034;-78
2021/06/25 04:48:36;;;;;;;50.72;27.98;;;11.10;99.90;;;;;;4993634;28;20029;-77
2021/06/25 04:51:02;;;;;;;45.35;27.00;;;11.10;99.90;;;;;;4993524;28;20077;-75
2021/06/25 04:53:27;;;;;;;50.95;27.52;;;11.10;99.90;;;;;;4993127;28;20042;-75
2021/06/25 04:55:54;;;;;;;49.17;29.17;;;11.10;99.90;;;;;;4995459;28;20042;-75
2021/06/25 04:58:22;;;;;;;46.70;27.80;;;11.10;99.90;;;;;;5011783;28;20029;-75
2021/06/25 05:00:48;;;;;;;44.80;27.80;;;11.10;99.90;;;;;;5012971;28;20022;-75
2021/06/25 05:03:14;;;;;;;47.92;28.02;;;11.30;99.90;;;;;;5011439;28;20022;-75
2021/06/25 05:05:42;;;;;;;55.95;31.05;;;11.40;99.90;;;;;;5012352;28;20025;-75
2021/06/25 05:08:08;;;;;;;49.28;28.65;;;11.50;99.90;;;;;;5011018;28;20494;-75
2021/06/25 05:10:34;;;;;;;49.80;29.52;;;11.60;99.90;;;;;;5012857;28;20025;-75
2021/06/25 05:13:00;;;;;;;48.83;26.77;;;11.70;99.90;;;;;;5011859;28;20600;-75
2021/06/25 05:15:25;;;;;;;50.22;28.13;;;11.80;99.90;;;;;;5011601;28;20075;-75
2021/06/25 05:17:51;;;;;;;44.47;27.00;;;12.00;99.90;;;;;;4999855;28;20072;-75
2021/06/25 05:20:20;;;;;;;46.10;26.88;;;12.20;99.90;;;;;;4993033;28;20062;-75
2021/06/25 05:22:46;;;;;;;43.88;28.48;;;12.40;99.90;;;;;;4992746;28;20360;-75
2021/06/25 05:25:13;;;;;;;50.45;27.13;;;12.60;99.90;;;;;;4993026;28;20042;-75
2021/06/25 05:27:39;;;;;;;40.33;25.00;;;12.80;99.90;;;;;;4999917;28;20030;-75
2021/06/25 05:30:06;;;;;;;39.63;25.95;;;13.00;99.90;;;;;;5012485;28;20157;-76
2021/06/25 05:32:32;;;;;;;42.28;27.52;;;13.20;99.90;;;;;;5012175;28;20099;-76
2021/06/25 05:34:57;;;;;;;41.50;28.23;;;13.40;99.90;;;;;;5012465;28;20482;-75
2021/06/25 05:37:23;;;;;;;36.55;25.80;;;13.70;99.90;;;;;;5008714;28;20042;-75
2021/06/25 05:39:49;;;;;;;42.33;28.13;;;13.90;99.90;;;;;;5007833;28;20034;-76
2021/06/25 05:42:15;;;;;;;38.10;26.38;;;14.10;99.90;;;;;;5007489;28;20402;-76
2021/06/25 05:44:40;;;;;;;27.08;18.45;;;14.20;99.90;;;;;;4992727;28;20023;-76
2021/06/25 05:47:06;;;;;;;32.13;21.50;;;14.30;99.90;;;;;;5007754;28;20033;-76
2021/06/25 05:49:33;;;;;;;22.80;16.25;;;14.30;99.90;;;;;;5009207;28;20048;-76
2021/06/25 05:51:59;;;;;;;27.25;16.55;;;14.30;99.90;;;;;;5011984;28;20064;-76
2021/06/25 05:54:24;;;;;;;25.42;15.25;;;14.30;99.90;;;;;;5010886;28;20402;-76
2021/06/25 05:56:50;;;;;;;23.13;16.77;;;14.30;99.90;;;;;;5010959;28;20018;-77
2021/06/25 05:59:16;;;;;;;27.73;17.45;;;14.50;99.90;;;;;;5007366;28;20026;-76
2021/06/25 06:01:41;;;;;;;23.35;15.52;;;14.70;99.90;;;;;;5000284;28;20025;-77
2021/06/25 06:04:07;;;;;;;25.50;17.35;;;14.90;99.90;;;;;;5010511;28;20037;-76
2021/06/25 06:06:32;;;;;;;23.65;14.55;;;14.90;99.90;;;;;;5010598;28;20120;-76
2021/06/25 06:08:58;;;;;;;23.08;14.88;;;15.10;99.90;;;;;;5010114;28;20033;-76
2021/06/25 06:11:24;;;;;;;19.88;14.65;;;15.10;99.90;;;;;;5011697;28;20502;-76
2021/06/25 06:13:49;;;;;;;23.40;13.77;;;15.20;99.90;;;;;;5000646;28;20083;-77
2021/06/25 06:16:15;;;;;;;16.88;13.57;;;15.40;99.90;;;;;;5007153;28;20034;-77
2021/06/25 06:18:48;;;;;;;17.30;9.88;;;15.60;99.90;;;;;;5008974;28;20029;-77
2021/06/25 06:21:17;;;;;;;20.33;12.43;;;15.80;99.90;;;;;;5010356;28;20026;-77
2021/06/25 06:32:10;;;;;;;;;;;16.50;99.90;;;;;;5005632;28;20052;-78
2021/06/25 06:34:37;;;;;;;20.58;12.00;;;17.00;99.90;;;;;;5012862;28;19995;-78
2021/06/25 06:37:03;;;;;;;14.73;11.05;;;17.30;99.90;;;;;;5009725;28;20033;-77
2021/06/25 06:39:29;;;;;;;13.98;10.00;;;17.50;99.90;;;;;;5010108;28;20494;-77
2021/06/25 06:41:59;;;;;;;16.30;9.90;;;17.60;99.90;;;;;;5014217;28;20084;-77
2021/06/25 06:44:25;;;;;;;15.00;11.32;;;17.50;99.90;;;;;;5012589;28;20030;-76
2021/06/25 06:46:50;;;;;;;14.45;11.05;;;17.50;99.90;;;;;;5012332;28;20057;-77
2021/06/25 06:49:16;;;;;;;16.75;10.00;;;17.20;99.90;;;;;;5010818;28;20029;-77
2021/06/25 06:51:42;;;;;;;17.15;12.40;;;17.10;99.90;;;;;;5008791;28;20478;-77
2021/06/25 06:54:07;;;;;;;17.20;11.75;;;17.00;99.90;;;;;;5008250;28;20041;-77
2021/06/25 06:56:33;;;;;;;13.30;7.60;;;17.30;99.90;;;;;;5006453;28;20463;-77
2021/06/25 06:59:00;;;;;;;11.07;8.45;;;17.30;99.90;;;;;;5011662;28;20025;-78
2021/06/25 07:01:27;;;;;;;18.58;9.77;;;17.60;99.90;;;;;;5007084;28;20042;-77
2021/06/25 07:03:53;;;;;;;16.88;9.73;;;17.30;99.90;;;;;;5013069;28;20021;-77
2021/06/25 07:06:19;;;;;;;11.90;7.28;;;17.40;99.90;;;;;;5013769;28;20025;-77
2021/06/25 07:08:44;;;;;;;11.35;6.72;;;17.40;99.90;;;;;;5013471;28;20026;-77
2021/06/25 07:11:10;;;;;;;11.77;8.43;;;17.60;99.90;;;;;;5012760;28;20084;-77
2021/06/25 07:13:36;;;;;;;17.17;8.85;;;17.80;99.90;;;;;;5013470;28;20438;-77
2021/06/25 07:16:01;;;;;;;13.95;8.80;;;18.00;99.90;;;;;;5013729;28;20033;-77
2021/06/25 07:18:27;;;;;;;13.60;8.15;;;18.30;99.90;;;;;;5013717;28;20398;-77
2021/06/25 07:20:52;;;;;;;12.18;7.65;;;18.30;99.90;;;;;;5010969;28;20748;-77
2021/06/25 07:23:19;;;;;;;12.15;8.30;;;18.50;99.90;;;;;;5008904;28;20037;-77
2021/06/25 07:25:45;;;;;;;9.95;4.47;;;18.50;99.90;;;;;;5008933;28;20050;-78
2021/06/25 07:28:11;;;;;;;5.55;4.47;;;18.30;99.90;;;;;;4993871;28;20049;-76
2021/06/25 07:30:36;;;;;;;10.52;5.13;;;17.70;99.90;;;;;;4993595;28;20037;-76
2021/06/25 07:33:03;;;;;;;6.97;4.50;;;17.30;99.90;;;;;;5025478;28;20037;-78
2021/06/25 07:35:29;;;;;;;9.30;5.43;;;16.90;99.90;;;;;;5013412;28;20022;-77
2021/06/25 07:37:55;;;;;;;6.95;5.03;;;16.80;99.90;;;;;;5000681;28;20035;-78
2021/06/25 07:40:21;;;;;;;7.78;4.13;;;16.70;99.90;;;;;;5008774;28;20026;-77
2021/06/25 07:42:47;;;;;;;11.68;3.42;;;16.90;99.90;;;;;;5005843;28;20057;-78
2021/06/25 07:45:13;;;;;;;6.53;3.05;;;17.00;99.90;;;;;;5013249;28;20030;-77
2021/06/25 07:47:42;;;;;;;4.13;3.20;;;17.00;99.90;;;;;;5006091;28;20445;-79
2021/06/25 07:50:10;;;;;;;7.85;2.83;;;17.00;99.90;;;;;;5004205;28;20490;-80
2021/06/25 07:52:36;;;;;;;5.38;3.22;;;17.10;99.90;;;;;;4976636;28;1046803;-79
2021/06/25 07:55:03;;;;;;;4.78;3.30;;;17.20;99.90;;;;;;5012987;28;20030;-78
2021/06/25 07:57:28;;;;;;;6.65;3.17;;;17.60;99.90;;;;;;5012237;28;20037;-78
2021/06/25 07:59:54;;;;;;;4.07;2.47;;;17.80;99.90;;;;;;5012668;28;20418;-78
2021/06/25 08:02:20;;;;;;;4.55;2.92;;;18.30;99.90;;;;;;5012534;28;20022;-77
2021/06/25 08:04:46;;;;;;;4.35;2.90;;;18.70;99.90;;;;;;5001088;28;20034;-76
2021/06/25 08:07:12;;;;;;;4.63;2.22;;;19.00;99.90;;;;;;5021936;28;20512;-76
2021/06/25 08:09:38;;;;;;;3.85;2.25;;;18.70;99.90;;;;;;5010518;28;20065;-76
2021/06/25 08:12:04;;;;;;;6.07;2.40;;;18.20;99.90;;;;;;5033236;28;20053;-77
2021/06/25 08:14:30;;;;;;;7.30;3.10;;;17.70;99.90;;;;;;5032290;28;20060;-77
2021/06/25 08:16:56;;;;;;;6.15;2.22;;;17.70;99.90;;;;;;5033638;28;20056;-77
2021/06/25 08:19:21;;;;;;;3.22;2.17;;;18.00;99.90;;;;;;5031042;28;20029;-77
2021/06/25 08:21:47;;;;;;;6.80;3.22;;;18.50;99.90;;;;;;5009582;28;20041;-77
2021/06/25 08:24:13;;;;;;;3.97;2.42;;;18.60;99.90;;;;;;5009043;28;20463;-78
2021/06/25 08:26:38;;;;;;;2.92;2.05;;;18.40;99.90;;;;;;4993487;28;20033;-77
2021/06/25 08:29:04;;;;;;;5.65;2.55;;;18.60;99.90;;;;;;5008080;28;20030;-77
2021/06/25 08:31:30;;;;;;;3.17;2.05;;;18.60;99.90;;;;;;5008549;28;20113;-76
2021/06/25 08:33:55;;;;;;;3.20;1.50;;;18.70;99.90;;;;;;5008195;28;20061;-76
2021/06/25 08:36:24;;;;;;;6.75;1.90;;;18.90;99.90;;;;;;5009245;28;20038;-77
2021/06/25 08:38:49;;;;;;;5.68;2.33;;;18.70;99.90;;;;;;5007642;28;20030;-78
2021/06/25 08:41:15;;;;;;;3.42;1.95;;;18.50;99.90;;;;;;5006053;28;20133;-77
2021/06/25 08:43:40;;;;;;;5.03;2.55;;;18.40;99.90;;;;;;5004970;28;20023;-77
2021/06/25 08:46:09;;;;;;;5.82;2.15;;;18.30;99.90;;;;;;5007829;28;20026;-76
2021/06/25 08:48:36;;;;;;;9.02;2.85;;;17.90;99.90;;;;;;5007084;28;20026;-76
2021/06/25 08:51:02;;;;;;;2.95;2.10;;;18.00;99.90;;;;;;5008216;28;20073;-77
2021/06/25 08:53:28;;;;;;;5.88;2.10;;;17.90;99.90;;;;;;5008381;28;20069;-77
2021/06/25 08:55:54;;;;;;;5.47;1.95;;;18.00;99.90;;;;;;5000738;28;20034;-77
2021/06/25 08:58:21;;;;;;;4.10;1.80;;;17.90;99.90;;;;;;5003978;28;20026;-77
2021/06/25 09:00:47;;;;;;;3.03;1.83;;;18.40;99.90;;;;;;5007440;28;20452;-76
2021/06/25 09:03:21;;;;;;;3.08;1.52;;;18.80;99.90;;;;;;5007167;28;20040;-77
2021/06/25 09:05:47;;;;;;;4.43;1.88;;;19.40;99.90;;;;;;5008614;28;20152;-76
2021/06/25 09:08:29;;;;;;;3.20;2.20;;;19.90;99.90;;;;;;5008787;28;20112;-77
2021/06/25 09:11:00;;;;;;;2.55;1.60;;;19.80;99.90;;;;;;5007043;28;20034;-76
2021/06/25 09:13:37;;;;;;;1.85;1.20;;;19.70;99.90;;;;;;5008133;28;20053;-76
2021/06/25 09:16:18;;;;;;;2.17;1.40;;;19.80;99.90;;;;;;5007825;28;20112;-76
2021/06/25 09:19:04;;;;;;;3.08;1.98;;;19.70;99.90;;;;;;5008939;28;20411;-77
2021/06/25 09:21:35;;;;;;;2.97;1.73;;;20.00;99.90;;;;;;5008851;28;20018;-77
2021/06/25 09:24:21;;;;;;;4.18;1.77;;;20.10;99.90;;;;;;5007033;28;20030;-76
2021/06/25 09:26:48;;;;;;;5.95;2.20;;;20.30;99.90;;;;;;5008338;28;20129;-76
2021/06/25 09:29:24;;;;;;;7.75;2.55;;;20.50;99.90;;;;;;5007401;28;20109;-76
2021/06/25 09:32:09;;;;;;;8.32;3.50;;;20.20;99.90;;;;;;5008015;28;20018;-76
2021/06/25 09:34:35;;;;;;;5.07;3.40;;;19.80;99.90;;;;;;5006869;28;20061;-76
2021/06/25 09:37:02;;;;;;;4.13;2.30;;;19.60;99.90;;;;;;5004232;28;20062;-76
2021/06/25 09:39:27;;;;;;;4.35;2.03;;;19.30;99.90;;;;;;5007867;28;20037;-77
2021/06/25 09:41:53;;;;;;;1.55;1.40;;;19.70;99.90;;;;;;5006332;28;20409;-77
2021/06/25 09:44:20;;;;;;;3.50;2.17;;;19.60;99.90;;;;;;5006933;28;20140;-77
2021/06/25 09:46:50;;;;;;;5.90;1.48;;;19.60;99.90;;;;;;5006161;28;20034;-77
2021/06/25 09:49:22;;;;;;;2.65;1.50;;;19.90;99.90;;;;;;5006692;28;20445;-77
2021/06/25 09:52:03;;;;;;;7.07;3.20;;;20.20;99.90;;;;;;5011563;28;20045;-77
2021/06/25 09:54:29;;;;;;;5.93;3.17;;;20.30;99.90;;;;;;5006690;28;20037;-77
2021/06/25 09:57:12;;;;;;;5.78;2.47;;;20.80;99.90;;;;;;5001723;28;20037;-77
2021/06/25 10:02:31;;;;;;;6.45;2.72;;;20.80;99.90;;;;;;5007237;28;20026;-78
2021/06/25 10:05:11;;;;;;;3.72;2.15;;;21.00;99.90;;;;;;5008299;28;20075;-79
2021/06/25 10:07:36;;;;;;;5.75;1.50;;;20.90;99.90;;;;;;5006286;28;20026;-81
2021/06/25 10:10:10;;;;;;;3.53;1.80;;;20.90;99.90;;;;;;5005406;28;20037;-81
2021/06/25 10:12:39;;;;;;;5.07;1.95;;;20.80;99.90;;;;;;5011999;28;20030;-80
2021/06/25 10:15:05;;;;;;;2.85;1.45;;;20.70;99.90;;;;;;5007652;28;20041;-81
2021/06/25 10:17:31;;;;;;;3.53;1.10;;;20.70;99.90;;;;;;5005246;28;20029;-81
2021/06/25 10:20:08;;;;;;;2.05;1.13;;;20.50;99.90;;;;;;5007378;28;20038;-81
2021/06/25 10:22:36;;;;;;;3.20;1.40;;;20.40;99.90;;;;;;5007480;28;20037;-80
2021/06/25 10:25:04;;;;;;;7.00;1.77;;;20.70;99.90;;;;;;5010976;28;20514;-80
2021/06/25 10:27:30;;;;;;;5.55;1.33;;;20.80;99.90;;;;;;5006884;28;20026;-80
2021/06/25 10:29:57;;;;;;;5.07;1.30;;;21.30;99.90;;;;;;5006495;28;20045;-80
2021/06/25 10:32:23;;;;;;;1.55;1.00;;;21.30;99.90;;;;;;4999000;28;20034;-80
2021/06/25 10:34:49;;;;;;;2.35;1.30;;;21.40;99.90;;;;;;5010313;28;20042;-81
2021/06/25 10:37:20;;;;;;;5.00;1.17;;;21.30;99.90;;;;;;5003540;28;20026;-80
2021/06/25 10:39:46;;;;;;;3.95;1.38;;;21.50;99.90;;;;;;5006194;28;20048;-80
2021/06/25 10:42:12;;;;;;;2.00;1.00;;;21.30;99.90;;;;;;5007172;28;20030;-81
2021/06/25 10:44:45;;;;;;;3.67;1.25;;;21.60;99.90;;;;;;5007244;28;20026;-82
2021/06/25 10:47:16;;;;;;;3.58;1.40;;;21.60;99.90;;;;;;5005697;28;20052;-81
2021/06/25 10:50:00;;;;;;;2.83;1.35;;;21.40;99.90;;;;;;5005992;28;20030;-81
2021/06/25 10:52:30;;;;;;;5.15;1.83;;;21.30;99.90;;;;;;5000297;28;20382;-80
2021/06/25 10:55:11;;;;;;;3.55;1.42;;;21.00;99.90;;;;;;5010218;28;20022;-81
2021/06/25 10:57:58;;;;;;;1.17;0.85;;;21.20;99.90;;;;;;5008360;28;20474;-81
2021/06/25 11:00:51;;;;;;;3.05;1.30;;;21.20;99.90;;;;;;4992828;28;20030;-80
2021/06/25 11:03:38;;;;;;;7.83;1.97;;;21.10;99.90;;;;;;5027851;28;20057;-81
2021/06/25 11:06:06;;;;;;;4.80;1.67;;;21.00;99.90;;;;;;5033559;28;20108;-81
2021/06/25 11:08:31;;;;;;;3.67;1.33;;;20.80;99.90;;;;;;5034798;28;20029;-80
2021/06/25 11:10:59;;;;;;;4.13;1.08;;;21.30;99.90;;;;;;5033535;28;20033;-81
2021/06/25 11:13:27;;;;;;;2.05;0.90;;;22.10;99.90;;;;;;5032513;28;20029;-81
2021/06/25 11:16:03;;;;;;;2.63;0.70;;;22.60;99.90;;;;;;5008466;28;20368;-81
2021/06/25 11:18:42;;;;;;;2.63;0.82;;;22.70;99.90;;;;;;4995258;28;20022;-82
2021/06/25 11:21:08;;;;;;;2.15;0.60;;;22.70;99.90;;;;;;4995220;28;20026;-81
2021/06/25 11:23:44;;;;;;;6.10;0.80;;;22.80;93.20;;;;;;4993866;28;20157;-81
2021/06/25 11:26:15;;;;;;;3.40;0.93;;;23.00;91.30;;;;;;4995215;28;20050;-81
2021/06/25 11:28:50;;;;;;;1.83;0.77;;;22.20;85.80;;;;;;4994953;28;20027;-81
2021/06/25 11:31:19;;;;;;;1.30;0.93;;;21.60;91.80;;;;;;5009768;28;20026;-81
2021/06/25 11:33:47;;;;;;;4.75;0.90;;;21.70;95.10;;;;;;5005722;28;20033;-80
2021/06/25 11:36:13;;;;;;;0.95;0.68;;;22.00;99.90;;;;;;5013348;28;20053;-80
2021/06/25 11:38:57;;;;;;;1.15;0.60;;;22.60;94.50;;;;;;5013290;28;20068;-81
2021/06/25 11:41:41;;;;;;;2.13;0.73;;;23.00;90.10;;;;;;5014213;28;20062;-81
2021/06/25 11:44:14;;;;;;;2.85;1.25;;;23.00;92.30;;;;;;5009170;28;20099;-81
2021/06/25 11:47:10;;;;;;;9.55;0.98;;;23.10;95.50;;;;;;4995240;28;20380;-81
2021/06/25 11:49:59;;;;;;;2.28;1.30;;;23.00;94.60;;;;;;4994677;28;20110;-80
2021/06/25 11:52:29;;;;;;;2.47;1.00;;;22.40;91.00;;;;;;5000565;28;20029;-81
2021/06/25 11:55:05;;;;;;;3.17;0.93;;;22.50;94.00;;;;;;5002122;28;20065;-80
2021/06/25 11:57:35;;;;;;;3.33;1.30;;;22.80;99.90;;;;;;4995634;28;20055;-81
2021/06/25 12:00:18;;;;;;;5.75;1.63;;;23.10;95.40;;;;;;4994409;28;20022;-81
2021/06/25 12:02:55;;;;;;;1.45;0.65;;;23.10;95.80;;;;;;5018168;28;20042;-81
2021/06/25 12:05:29;;;;;;;1.30;0.93;;;23.10;92.00;;;;;;5003339;28;20403;-80
2021/06/25 12:08:06;;;;;;;2.92;0.90;;;23.40;92.80;;;;;;5000893;28;20023;-81
2021/06/25 12:10:32;;;;;;;2.28;0.70;;;23.80;97.10;;;;;;4994474;28;20030;-81
2021/06/25 12:12:59;;;;;;;2.22;1.17;;;24.00;89.60;;;;;;4993962;28;20034;-81
2021/06/25 12:15:26;;;;;;;2.13;1.05;;;23.60;93.00;;;;;;4993246;28;20037;-79
2021/06/25 12:17:56;;;;;;;1.35;0.70;;;23.90;90.30;;;;;;4992633;28;20045;-81
2021/06/25 12:20:23;;;;;;;1.40;0.80;;;24.00;89.00;;;;;;5005433;28;20107;-81
2021/06/25 12:22:51;;;;;;;3.67;0.90;;;24.20;86.20;;;;;;5008986;28;20060;-81
2021/06/25 12:25:50;;;;;;;1.95;0.80;;;24.00;93.10;;;;;;5006996;28;20038;-81
2021/06/25 12:28:17;;;;;;;5.03;1.35;;;24.70;92.30;;;;;;5000338;28;20044;-81
2021/06/25 12:30:44;;;;;;;1.60;1.15;;;24.60;94.50;;;;;;4997124;28;20878;-81
2021/06/25 12:33:11;;;;;;;3.25;0.95;;;24.60;94.60;;;;;;5001136;28;20048;-81
2021/06/25 12:35:40;;;;;;;2.72;1.02;;;24.50;91.00;;;;;;5007493;28;20034;-80
2021/06/25 12:38:11;;;;;;;2.83;0.90;;;24.30;92.70;;;;;;5001908;28;20105;-81
2021/06/25 12:40:43;;;;;;;1.35;0.93;;;24.50;91.60;;;;;;5004733;28;20040;-81
2021/06/25 12:43:11;;;;;;;5.78;1.30;;;25.10;88.80;;;;;;5002081;28;20038;-81
2021/06/25 12:45:45;;;;;;;2.15;1.10;;;25.60;88.60;;;;;;5009778;28;20026;-81
2021/06/25 12:48:38;;;;;;;3.00;1.05;;;25.80;85.90;;;;;;4997758;28;20053;-81
2021/06/25 12:51:10;;;;;;;2.42;0.68;;;25.40;83.00;;;;;;4998400;28;20042;-81
2021/06/25 12:53:41;;;;;;;2.42;0.88;;;25.20;83.60;;;;;;5008596;28;20041;-82